Time;durP1;ratioP1;P1;durP2;ratioP2;P2;SDS_P1;SDS_P2;PMS_P1;PMS_P2;Temp;Humidity;BMP_temperature;BMP_pressure;BME280_temperature;BME280_humidity;BME280_pressure;Samples;Min_cycle;Max_cycle;Signal;HPM_P1;HPM_P2
2022/09/21 00:01:18;;;;;;;8.07;4.80;;;;;;;;;;5052475;28;20036;-82
2022/09/21 00:03:53;;;;;;;10.52;4.80;;;;;;;;;;5069321;28;20142;-82
2022/09/21 00:06:22;;;;;;;9.45;4.75;;;;;;;;;;5047452;28;20033;-82
2022/09/21 00:08:51;;;;;;;7.70;4.65;;;;;;;;;;5070942;28;20040;-82
2022/09/21 00:14:45;;;;;;;10.55;4.47;;;;;;;;;;5068363;28;20028;-82
2022/09/21 00:17:13;;;;;;;9.50;4.65;;;;;;;;;;5053491;28;20076;-82
2022/09/21 00:19:41;;;;;;;9.93;4.45;;;;;;;;;;5068766;28;20041;-83
2022/09/21 00:22:09;;;;;;;8.48;4.60;;;;;;;;;;5068396;28;20082;-82
2022/09/21 00:24:37;;;;;;;9.25;5.63;;;;;;;;;;5053232;28;20045;-82
2022/09/21 00:27:05;;;;;;;8.50;4.65;;;;;;;;;;5068009;28;20429;-82
2022/09/21 00:29:59;;;;;;;8.70;4.72;;;;;;;;;;5069315;28;20038;-82
2022/09/21 00:32:35;;;;;;;12.27;5.00;;;;;;;;;;5070881;28;20044;-83
2022/09/21 00:35:05;;;;;;;9.93;4.47;;;;;;;;;;5066731;28;20518;-83
2022/09/21 00:37:34;;;;;;;6.57;4.20;;;;;;;;;;5068211;28;20047;-82
2022/09/21 00:40:02;;;;;;;7.47;4.28;;;;;;;;;;5066451;28;20036;-83
2022/09/21 00:43:15;;;;;;;8.75;4.68;;;;;;;;;;5066046;28;20044;-82
2022/09/21 00:45:47;;;;;;;8.63;5.03;;;;;;;;;;4986913;28;20579;-82
2022/09/21 00:48:15;;;;;;;8.82;4.65;;;;;;;;;;4988257;28;20054;-82
2022/09/21 00:51:08;;;;;;;7.65;4.28;;;;;;;;;;4976521;28;20414;-82
2022/09/21 00:53:36;;;;;;;9.30;4.70;;;;;;;;;;4973454;28;20046;-83
2022/09/21 00:56:10;;;;;;;7.18;4.30;;;;;;;;;;4987845;28;20061;-83
2022/09/21 00:58:45;;;;;;;8.82;3.95;;;;;;;;;;4987315;28;20054;-83
2022/09/21 01:01:37;;;;;;;7.78;3.83;;;;;;;;;;4968961;28;20034;-83
2022/09/21 01:04:05;;;;;;;7.25;4.15;;;;;;;;;;4971827;28;20050;-83
2022/09/21 01:06:35;;;;;;;9.20;3.95;;;;;;;;;;4987976;28;20491;-82
2022/09/21 01:09:03;;;;;;;9.38;4.57;;;;;;;;;;4987143;28;20041;-82
2022/09/21 01:11:42;;;;;;;7.00;4.30;;;;;;;;;;4988791;28;20065;-82
2022/09/21 01:14:36;;;;;;;7.78;3.95;;;;;;;;;;4984212;28;20125;-83
2022/09/21 01:17:41;;;;;;;7.88;4.65;;;;;;;;;;4987623;28;20046;-83
2022/09/21 01:20:28;;;;;;;9.70;4.57;;;;;;;;;;4972317;28;20042;-82
2022/09/21 01:23:18;;;;;;;7.05;4.00;;;;;;;;;;5028321;28;20067;-83
2022/09/21 01:26:11;;;;;;;8.55;4.40;;;;;;;;;;5070342;28;20037;-83
2022/09/21 01:29:00;;;;;;;7.97;4.47;;;;;;;;;;5054278;28;20052;-82
2022/09/21 01:32:15;;;;;;;8.70;4.47;;;;;;;;;;5070660;28;20043;-83
2022/09/21 01:34:53;;;;;;;11.82;4.40;;;;;;;;;;5066495;28;20044;-83
2022/09/21 01:37:35;;;;;;;7.47;4.18;;;;;;;;;;5051391;28;20119;-83
2022/09/21 01:40:09;;;;;;;10.75;4.25;;;;;;;;;;5071045;28;20109;-83
2022/09/21 01:42:39;;;;;;;9.07;4.03;;;;;;;;;;5069012;28;20100;-83
2022/09/21 01:45:16;;;;;;;7.25;4.30;;;;;;;;;;5068253;28;20044;-82
2022/09/21 01:47:46;;;;;;;9.57;3.97;;;;;;;;;;5054384;28;20585;-82
2022/09/21 01:50:25;;;;;;;10.13;4.60;;;;;;;;;;5071053;28;20040;-83
2022/09/21 01:53:10;;;;;;;8.80;4.10;;;;;;;;;;5069374;28;20037;-83
2022/09/21 01:55:48;;;;;;;7.50;3.80;;;;;;;;;;5066736;28;20043;-82
2022/09/21 01:58:31;;;;;;;6.93;4.20;;;;;;;;;;5068254;28;20033;-82
2022/09/21 02:00:59;;;;;;;7.50;4.20;;;;;;;;;;5069688;28;20049;-83
2022/09/21 02:03:53;;;;;;;6.82;3.65;;;;;;;;;;5068140;28;20043;-83
2022/09/21 02:06:23;;;;;;;7.40;3.70;;;;;;;;;;5069469;28;20480;-83
2022/09/21 02:08:57;;;;;;;9.35;3.90;;;;;;;;;;5070933;28;20041;-83
2022/09/21 02:11:29;;;;;;;7.53;4.18;;;;;;;;;;5068759;28;20062;-83
2022/09/21 02:13:57;;;;;;;7.00;3.58;;;;;;;;;;5066700;28;20047;-83
2022/09/21 02:16:37;;;;;;;8.57;4.03;;;;;;;;;;5067440;28;20037;-82
2022/09/21 02:19:43;;;;;;;6.65;3.58;;;;;;;;;;5067860;28;20071;-83
2022/09/21 02:22:28;;;;;;;9.20;3.88;;;;;;;;;;5053024;28;20121;-83
2022/09/21 02:25:14;;;;;;;8.32;3.97;;;;;;;;;;5069691;28;20044;-83
2022/09/21 02:28:00;;;;;;;7.47;3.58;;;;;;;;;;5068362;28;20098;-83
2022/09/21 02:30:34;;;;;;;7.63;4.00;;;;;;;;;;5050924;28;20126;-82
2022/09/21 02:33:03;;;;;;;7.32;3.60;;;;;;;;;;5069630;28;20048;-82
2022/09/21 02:35:57;;;;;;;10.23;4.57;;;;;;;;;;5069899;28;20037;-83
2022/09/21 02:38:32;;;;;;;7.90;3.72;;;;;;;;;;5052146;28;20091;-83
2022/09/21 02:41:22;;;;;;;6.53;3.90;;;;;;;;;;5052105;28;20040;-82
2022/09/21 02:44:32;;;;;;;8.93;3.90;;;;;;;;;;5068385;28;20032;-83
2022/09/21 02:47:30;;;;;;;6.95;3.28;;;;;;;;;;5065741;28;20039;-84
2022/09/21 02:50:10;;;;;;;7.68;3.80;;;;;;;;;;5067080;28;20060;-82
2022/09/21 02:52:40;;;;;;;7.53;4.75;;;;;;;;;;5065328;28;20032;-81
2022/09/21 02:55:08;;;;;;;6.72;3.67;;;;;;;;;;5067166;28;20510;-82
2022/09/21 02:57:37;;;;;;;6.32;3.58;;;;;;;;;;5068605;28;20036;-83
2022/09/21 03:00:11;;;;;;;6.93;3.80;;;;;;;;;;5066327;28;20033;-82
2022/09/21 03:03:20;;;;;;;6.75;3.45;;;;;;;;;;5067929;28;20150;-82
2022/09/21 03:05:52;;;;;;;9.60;3.80;;;;;;;;;;5066987;28;20044;-83
2022/09/21 03:08:20;;;;;;;6.95;3.22;;;;;;;;;;5067362;28;20060;-82
2022/09/21 03:10:50;;;;;;;8.07;3.25;;;;;;;;;;5065503;28;20040;-83
2022/09/21 03:13:45;;;;;;;7.90;3.20;;;;;;;;;;5069263;28;20522;-83
2022/09/21 03:16:13;;;;;;;6.85;3.72;;;;;;;;;;5065650;28;20045;-83
2022/09/21 03:18:43;;;;;;;7.78;3.58;;;;;;;;;;5065945;28;20066;-83
2022/09/21 03:21:17;;;;;;;6.70;3.38;;;;;;;;;;5065074;28;20591;-82
2022/09/21 03:23:45;;;;;;;9.95;3.58;;;;;;;;;;5066920;28;20041;-82
2022/09/21 03:26:13;;;;;;;8.38;4.20;;;;;;;;;;5065591;28;20037;-82
2022/09/21 03:28:45;;;;;;;8.68;4.03;;;;;;;;;;5066941;28;20516;-82
2022/09/21 03:31:13;;;;;;;7.53;3.80;;;;;;;;;;5066732;28;20051;-82
2022/09/21 03:33:41;;;;;;;7.50;3.88;;;;;;;;;;5066351;28;20135;-82
2022/09/21 03:36:09;;;;;;;6.82;3.70;;;;;;;;;;5050892;28;20195;-82
2022/09/21 03:38:46;;;;;;;5.72;3.17;;;;;;;;;;5051347;28;20063;-83
2022/09/21 03:41:14;;;;;;;6.75;3.42;;;;;;;;;;5067196;28;20040;-82
2022/09/21 03:43:41;;;;;;;6.28;3.75;;;;;;;;;;5064606;28;20048;-82
2022/09/21 03:46:09;;;;;;;5.65;3.40;;;;;;;;;;5064043;28;20036;-83
2022/09/21 03:49:01;;;;;;;6.85;3.17;;;;;;;;;;5070209;28;20115;-82
2022/09/21 03:51:31;;;;;;;8.52;3.97;;;;;;;;;;5068442;28;20454;-82
2022/09/21 03:54:23;;;;;;;6.90;3.65;;;;;;;;;;5066386;28;20038;-83
2022/09/21 03:57:00;;;;;;;7.60;3.50;;;;;;;;;;5067147;28;20051;-82
2022/09/21 03:59:27;;;;;;;6.65;3.38;;;;;;;;;;5067357;28;20500;-82
2022/09/21 04:01:55;;;;;;;5.47;3.55;;;;;;;;;;5065747;28;20036;-82
2022/09/21 04:04:23;;;;;;;6.82;3.47;;;;;;;;;;5068391;28;20109;-82
2022/09/21 04:06:55;;;;;;;7.03;3.53;;;;;;;;;;5065765;28;20489;-82
2022/09/21 04:09:23;;;;;;;7.75;3.67;;;;;;;;;;5051099;28;20147;-82
2022/09/21 04:11:52;;;;;;;6.45;3.13;;;;;;;;;;5067079;28;20037;-82
2022/09/21 04:14:45;;;;;;;5.75;3.35;;;;;;;;;;5064809;28;20029;-83
2022/09/21 04:17:13;;;;;;;12.13;3.50;;;;;;;;;;5049400;28;20560;-82
2022/09/21 04:19:41;;;;;;;7.80;3.53;;;;;;;;;;5068358;28;20040;-83
2022/09/21 04:22:23;;;;;;;8.18;3.47;;;;;;;;;;5062870;28;20067;-83
2022/09/21 04:24:51;;;;;;;6.85;3.50;;;;;;;;;;5067847;28;20032;-82
2022/09/21 04:27:23;;;;;;;8.77;3.40;;;;;;;;;;5035892;28;20033;-82
2022/09/21 04:30:02;;;;;;;6.45;2.90;;;;;;;;;;5052881;28;20098;-82
2022/09/21 04:32:29;;;;;;;7.15;3.45;;;;;;;;;;5064768;28;20068;-83
2022/09/21 04:34:57;;;;;;;5.90;3.13;;;;;;;;;;5051332;28;20048;-82
2022/09/21 04:37:25;;;;;;;6.22;3.30;;;;;;;;;;5053810;28;20117;-82
2022/09/21 04:39:53;;;;;;;7.85;3.83;;;;;;;;;;5071757;28;20161;-82
2022/09/21 04:45:15;;;;;;;5.88;2.85;;;;;;;;;;5072838;28;20049;-82
2022/09/21 04:47:43;;;;;;;9.73;3.45;;;;;;;;;;5070013;28;20594;-83
2022/09/21 04:50:11;;;;;;;10.02;2.85;;;;;;;;;;5055364;28;20037;-83
2022/09/21 04:52:39;;;;;;;9.80;3.35;;;;;;;;;;5070465;28;20037;-82
2022/09/21 04:55:07;;;;;;;6.75;3.53;;;;;;;;;;5068010;28;20833;-82
2022/09/21 04:57:35;;;;;;;8.75;3.58;;;;;;;;;;5069442;28;20068;-83
2022/09/21 05:00:54;;;;;;;6.78;3.40;;;;;;;;;;5068622;28;20037;-82
2022/09/21 05:03:47;;;;;;;6.18;3.60;;;;;;;;;;5068710;28;20530;-82
2022/09/21 05:06:24;;;;;;;7.20;3.58;;;;;;;;;;5046853;28;20123;-82
2022/09/21 05:12:01;;;;;;;8.75;3.45;;;;;;;;;;5072020;28;20061;-83
2022/09/21 05:14:29;;;;;;;8.50;3.70;;;;;;;;;;5052404;28;20040;-83
2022/09/21 05:17:02;;;;;;;7.57;3.33;;;;;;;;;;5069505;28;20037;-83
2022/09/21 05:19:29;;;;;;;10.68;3.65;;;;;;;;;;5063573;28;20113;-82
2022/09/21 05:22:01;;;;;;;7.13;3.33;;;;;;;;;;5034306;28;20055;-82
2022/09/21 05:24:53;;;;;;;9.82;3.85;;;;;;;;;;5050448;28;20037;-82
2022/09/21 05:27:45;;;;;;;5.85;3.13;;;;;;;;;;5067330;28;20028;-82
2022/09/21 05:30:37;;;;;;;8.57;3.67;;;;;;;;;;5060052;28;20052;-82
2022/09/21 05:33:07;;;;;;;6.22;3.60;;;;;;;;;;5063078;28;20060;-82
2022/09/21 05:36:33;;;;;;;8.02;3.67;;;;;;;;;;5047791;28;20538;-84
2022/09/21 05:39:01;;;;;;;5.20;3.08;;;;;;;;;;5070299;28;20078;-83
2022/09/21 05:41:34;;;;;;;6.35;3.47;;;;;;;;;;5066440;28;20036;-83
2022/09/21 05:44:03;;;;;;;8.60;3.60;;;;;;;;;;5065359;28;20167;-83
2022/09/21 05:47:04;;;;;;;7.55;3.47;;;;;;;;;;5065209;28;20047;-83
2022/09/21 05:49:45;;;;;;;10.07;3.70;;;;;;;;;;5065933;28;20054;-82
2022/09/21 05:52:19;;;;;;;6.88;3.70;;;;;;;;;;5068062;28;20045;-83
2022/09/21 05:55:30;;;;;;;6.68;3.65;;;;;;;;;;5053821;28;20560;-83
2022/09/21 05:58:47;;;;;;;8.77;3.70;;;;;;;;;;5067853;28;20059;-83
2022/09/21 06:01:22;;;;;;;7.38;3.30;;;;;;;;;;4982756;28;20080;-82
2022/09/21 06:03:49;;;;;;;10.23;4.00;;;;;;;;;;4954268;28;20130;-83
2022/09/21 06:06:17;;;;;;;8.13;4.00;;;;;;;;;;4984840;28;20145;-83
2022/09/21 06:09:11;;;;;;;10.50;3.90;;;;;;;;;;4985660;28;20576;-83
2022/09/21 06:11:39;;;;;;;7.78;3.60;;;;;;;;;;4969216;28;20186;-83
2022/09/21 06:14:31;;;;;;;9.52;3.85;;;;;;;;;;4983038;28;20518;-84
2022/09/21 06:16:59;;;;;;;8.73;3.70;;;;;;;;;;4982087;28;20042;-84
2022/09/21 06:19:27;;;;;;;9.40;4.03;;;;;;;;;;4986383;28;20050;-84
2022/09/21 06:21:59;;;;;;;7.53;4.30;;;;;;;;;;4985256;28;20167;-84
2022/09/21 06:24:27;;;;;;;7.57;3.70;;;;;;;;;;4983649;28;20074;-84
2022/09/21 06:26:55;;;;;;;6.75;3.85;;;;;;;;;;4965836;28;20162;-84
2022/09/21 06:29:23;;;;;;;8.50;4.07;;;;;;;;;;4984251;28;20178;-84
2022/09/21 06:31:51;;;;;;;7.80;4.18;;;;;;;;;;4967128;28;20474;-84
2022/09/21 06:34:19;;;;;;;7.80;4.03;;;;;;;;;;4981933;28;20047;-84
2022/09/21 06:36:47;;;;;;;9.80;4.65;;;;;;;;;;5003545;28;20044;-83
2022/09/21 06:39:19;;;;;;;7.57;4.25;;;;;;;;;;5046138;28;20448;-82
2022/09/21 06:41:47;;;;;;;9.55;4.65;;;;;;;;;;5062146;28;20064;-82
2022/09/21 06:44:20;;;;;;;12.07;5.43;;;;;;;;;;5058502;28;20041;-84
2022/09/21 06:46:47;;;;;;;12.68;5.32;;;;;;;;;;5039533;28;20511;-83
2022/09/21 06:49:39;;;;;;;10.10;4.88;;;;;;;;;;5034352;28;20032;-83
2022/09/21 06:52:09;;;;;;;9.40;5.25;;;;;;;;;;5031905;28;20068;-83
2022/09/21 06:54:37;;;;;;;16.25;6.43;;;;;;;;;;5051911;28;20039;-83
2022/09/21 06:57:05;;;;;;;11.95;6.57;;;;;;;;;;5060692;28;20045;-82
2022/09/21 06:59:33;;;;;;;16.15;6.63;;;;;;;;;;5042280;28;20045;-83
2022/09/21 07:02:01;;;;;;;12.73;6.30;;;;;;;;;;5065459;28;20060;-83
2022/09/21 07:04:29;;;;;;;14.38;6.88;;;;;;;;;;5045809;28;20454;-82
2022/09/21 07:07:23;;;;;;;16.58;7.57;;;;;;;;;;5066952;28;20036;-83
2022/09/21 07:09:51;;;;;;;14.70;7.50;;;;;;;;;;5033383;28;20048;-82
2022/09/21 07:12:43;;;;;;;15.55;8.02;;;;;;;;;;5064675;28;20150;-82
2022/09/21 07:15:12;;;;;;;18.85;9.63;;;;;;;;;;5066050;28;20047;-83
2022/09/21 07:17:39;;;;;;;16.67;9.32;;;;;;;;;;5042757;28;20052;-83
2022/09/21 07:20:07;;;;;;;25.67;11.60;;;;;;;;;;5067638;28;20032;-83
2022/09/21 07:22:35;;;;;;;23.23;9.57;;;;;;;;;;5062873;28;20075;-83
2022/09/21 07:25:04;;;;;;;22.35;11.23;;;;;;;;;;5065515;28;20041;-83
2022/09/21 07:27:32;;;;;;;22.63;10.02;;;;;;;;;;5064572;28;20266;-83
2022/09/21 07:29:59;;;;;;;18.52;9.70;;;;;;;;;;5045900;28;20060;-83
2022/09/21 07:32:27;;;;;;;21.45;11.02;;;;;;;;;;5063643;28;20032;-83
2022/09/21 07:34:55;;;;;;;19.70;10.05;;;;;;;;;;5065646;28;20408;-83
2022/09/21 07:37:24;;;;;;;16.65;9.27;;;;;;;;;;5067191;28;20122;-83
2022/09/21 07:39:52;;;;;;;21.90;9.88;;;;;;;;;;5063984;28;20107;-82
2022/09/21 07:42:26;;;;;;;17.27;8.77;;;;;;;;;;5063521;28;20040;-82
2022/09/21 07:44:55;;;;;;;18.17;8.93;;;;;;;;;;5046712;28;20036;-83
2022/09/21 07:47:31;;;;;;;14.98;8.38;;;;;;;;;;5062049;28;20043;-83
2022/09/21 07:49:59;;;;;;;16.75;9.13;;;;;;;;;;5063082;28;20447;-83
2022/09/21 07:52:31;;;;;;;15.70;7.97;;;;;;;;;;5047058;28;20041;-83
2022/09/21 07:54:59;;;;;;;16.27;8.13;;;;;;;;;;5065363;28;20029;-83
2022/09/21 08:00:37;;;;;;;16.30;7.88;;;;;;;;;;5063741;28;20028;-83
2022/09/21 08:03:05;;;;;;;13.98;7.35;;;;;;;;;;5044503;28;20043;-83
2022/09/21 08:05:33;;;;;;;15.40;7.55;;;;;;;;;;5044643;28;21016;-83
2022/09/21 08:08:01;;;;;;;13.38;6.65;;;;;;;;;;5062153;28;20140;-83
2022/09/21 08:10:30;;;;;;;9.45;5.68;;;;;;;;;;5048058;28;20116;-82
2022/09/21 08:12:59;;;;;;;9.38;5.10;;;;;;;;;;5052450;28;20043;-83
2022/09/21 08:15:31;;;;;;;10.15;5.15;;;;;;;;;;5067409;28;20048;-83
2022/09/21 08:18:15;;;;;;;8.52;4.50;;;;;;;;;;5054179;28;20041;-83
2022/09/21 08:21:09;;;;;;;7.13;3.97;;;;;;;;;;5055694;28;20122;-83
2022/09/21 08:23:39;;;;;;;10.52;3.60;;;;;;;;;;5067977;28;20036;-83
2022/09/21 08:26:32;;;;;;;6.18;3.78;;;;;;;;;;5068830;28;20115;-83
2022/09/21 08:29:07;;;;;;;7.55;3.53;;;;;;;;;;5068357;28;20124;-83
2022/09/21 08:31:44;;;;;;;10.52;3.85;;;;;;;;;;5067318;28;20993;-83
2022/09/21 08:37:05;;;;;;;4.70;2.00;;;;;;;;;;5068609;28;20045;-83
2022/09/21 08:39:33;;;;;;;4.75;2.13;;;;;;;;;;5067949;28;20055;-83
2022/09/21 08:42:10;;;;;;;4.63;1.40;;;;;;;;;;5068172;28;20114;-83
2022/09/21 08:44:42;;;;;;;2.13;0.80;;;;;;;;;;5050522;28;20072;-82
2022/09/21 08:47:25;;;;;;;4.43;1.20;;;;;;;;;;5051652;28;20113;-83
2022/09/21 08:50:00;;;;;;;3.85;1.40;;;;;;;;;;5068611;28;20041;-83
2022/09/21 08:52:33;;;;;;;5.03;1.60;;;;;;;;;;5065218;28;20072;-84
2022/09/21 08:55:08;;;;;;;3.22;1.60;;;;;;;;;;5049767;28;20094;-84
2022/09/21 08:58:02;;;;;;;4.22;1.23;;;;;;;;;;5069853;28;20475;-84
2022/09/21 09:01:18;;;;;;;3.35;1.10;;;;;;;;;;5050365;28;20045;-84
2022/09/21 09:03:53;;;;;;;2.88;0.98;;;;;;;;;;5066910;28;20037;-84
2022/09/21 09:07:17;;;;;;;4.28;1.23;;;;;;;;;;5051440;28;20040;-84
2022/09/21 09:10:00;;;;;;;2.63;0.98;;;;;;;;;;5067349;28;20492;-85
2022/09/21 09:13:09;;;;;;;3.88;0.70;;;;;;;;;;5063337;28;20097;-84
2022/09/21 09:15:44;;;;;;;3.08;0.70;;;;;;;;;;5067209;28;20033;-84
2022/09/21 09:18:16;;;;;;;3.35;1.13;;;;;;;;;;5067668;28;20068;-84
2022/09/21 09:20:55;;;;;;;1.67;0.90;;;;;;;;;;5049173;28;20052;-84
2022/09/21 09:23:27;;;;;;;2.10;1.08;;;;;;;;;;5067549;28;20051;-84
2022/09/21 09:26:08;;;;;;;3.38;1.10;;;;;;;;;;5070776;28;20394;-84
2022/09/21 09:29:11;;;;;;;4.00;1.88;;;;;;;;;;5052837;28;20060;-84
2022/09/21 09:32:00;;;;;;;2.17;1.02;;;;;;;;;;5064534;28;20047;-85
2022/09/21 09:35:17;;;;;;;3.22;0.90;;;;;;;;;;5049672;28;20045;-85
2022/09/21 09:38:20;;;;;;;1.63;0.80;;;;;;;;;;5047488;28;20037;-84
2022/09/21 09:42:04;;;;;;;3.13;0.93;;;;;;;;;;5058996;28;20510;-84
2022/09/21 09:45:28;;;;;;;2.38;1.00;;;;;;;;;;5067257;28;20033;-84
2022/09/21 09:48:40;;;;;;;2.47;1.02;;;;;;;;;;5066127;28;20054;-84
2022/09/21 09:51:19;;;;;;;2.33;0.90;;;;;;;;;;5068502;28;20119;-84
2022/09/21 09:54:02;;;;;;;3.03;0.82;;;;;;;;;;5052818;28;20041;-84
2022/09/21 09:56:37;;;;;;;3.25;0.70;;;;;;;;;;5064534;28;20037;-84
2022/09/21 09:59:54;;;;;;;2.15;0.90;;;;;;;;;;5049494;28;20127;-84
2022/09/21 10:02:56;;;;;;;1.63;0.65;;;;;;;;;;5063940;28;20041;-84
2022/09/21 10:05:42;;;;;;;2.00;0.70;;;;;;;;;;5053530;28;20067;-84
2022/09/21 10:08:35;;;;;;;1.77;0.80;;;;;;;;;;5065763;28;20049;-84
2022/09/21 10:11:36;;;;;;;1.30;0.55;;;;;;;;;;5063399;28;20048;-85
2022/09/21 10:15:26;;;;;;;2.40;0.75;;;;;;;;;;5052948;28;20412;-85
2022/09/21 10:19:13;;;;;;;3.30;0.60;;;;;;;;;;5066238;28;20106;-85
2022/09/21 10:21:57;;;;;;;4.15;0.70;;;;;;;;;;5034397;28;20076;-83
2022/09/21 10:25:25;;;;;;;1.90;0.70;;;;;;;;;;5046300;28;20057;-85
2022/09/21 10:28:31;;;;;;;2.13;0.80;;;;;;;;;;5062230;28;20045;-85
2022/09/21 10:31:49;;;;;;;1.60;0.77;;;;;;;;;;5064126;28;20201;-85
2022/09/21 10:34:45;;;;;;;2.10;0.77;;;;;;;;;;5049983;28;20202;-85
2022/09/21 10:37:34;;;;;;;2.17;0.70;;;;;;;;;;5033108;28;20045;-84
2022/09/21 10:40:18;;;;;;;0.95;0.35;;;;;;;;;;5051990;28;20385;-85
2022/09/21 10:43:22;;;;;;;1.20;0.57;;;;;;;;;;5064789;28;20119;-85
2022/09/21 10:47:13;;;;;;;1.23;0.57;;;;;;;;;;5052376;28;20044;-85
2022/09/21 10:50:38;;;;;;;0.80;0.40;;;;;;;;;;5064054;28;20032;-86
2022/09/21 10:53:35;;;;;;;1.50;0.50;;;;;;;;;;5065709;28;20127;-85
2022/09/21 10:56:27;;;;;;;1.20;0.60;;;;;;;;;;5050683;28;20037;-85
2022/09/21 11:00:13;;;;;;;0.88;0.40;;;;;;;;;;5059916;28;20140;-85
2022/09/21 11:04:20;;;;;;;0.93;0.40;;;;;;;;;;5065475;28;20081;-85
2022/09/21 11:07:36;;;;;;;0.68;0.40;;;;;;;;;;5065017;28;20044;-85
2022/09/21 11:11:56;;;;;;;0.90;0.45;;;;;;;;;;5052605;28;20040;-85
2022/09/21 11:15:29;;;;;;;1.75;0.63;;;;;;;;;;5007009;28;20091;-84
2022/09/21 11:18:08;;;;;;;1.85;0.40;;;;;;;;;;5009081;28;20057;-84
2022/09/21 11:20:54;;;;;;;2.08;0.70;;;;;;;;;;5013623;28;20049;-84
2022/09/21 11:23:44;;;;;;;1.30;0.60;;;;;;;;;;4993105;28;20042;-83
2022/09/21 11:26:29;;;;;;;2.10;0.60;;;;;;;;;;5009956;28;20152;-83
2022/09/21 11:29:00;;;;;;;1.50;0.55;;;;;;;;;;5011462;28;20555;-83
2022/09/21 11:31:39;;;;;;;0.85;0.50;;;;;;;;;;4992706;28;20065;-83
2022/09/21 11:34:38;;;;;;;0.93;0.45;;;;;;;;;;5009981;28;20049;-83
2022/09/21 11:37:23;;;;;;;2.45;0.60;;;;;;;;;;5002662;28;20050;-83
2022/09/21 11:40:20;;;;;;;2.78;0.90;;;;;;;;;;4995397;28;20046;-85
2022/09/21 11:44:08;;;;;;;1.17;0.50;;;;;;;;;;5009194;28;20042;-84
2022/09/21 11:48:39;;;;;;;4.03;0.60;;;;;;;;;;4996369;28;20046;-85
2022/09/21 11:52:30;;;;;;;2.33;0.70;;;;;;;;;;5037403;28;20064;-84
2022/09/21 11:55:54;;;;;;;2.10;0.77;;;;;;;;;;5032046;28;20045;-84
2022/09/21 11:59:35;;;;;;;1.67;0.45;;;;;;;;;;5031647;28;20032;-84
2022/09/21 12:02:41;;;;;;;1.30;0.57;;;;;;;;;;5048855;28;20095;-85
2022/09/21 12:05:35;;;;;;;1.77;0.73;;;;;;;;;;5019724;28;20041;-84
2022/09/21 12:08:24;;;;;;;1.23;0.60;;;;;;;;;;5009843;28;20699;-83
2022/09/21 12:11:12;;;;;;;1.30;0.50;;;;;;;;;;5042308;28;20637;-83
2022/09/21 12:14:21;;;;;;;1.33;0.40;;;;;;;;;;5052933;28;20036;-84
2022/09/21 12:17:10;;;;;;;0.85;0.30;;;;;;;;;;5050268;28;20045;-84
2022/09/21 12:20:01;;;;;;;2.92;0.60;;;;;;;;;;5049257;28;20046;-84
2022/09/21 12:22:32;;;;;;;1.13;0.30;;;;;;;;;;5063003;28;20488;-84
2022/09/21 12:25:16;;;;;;;0.80;0.40;;;;;;;;;;5066907;28;20048;-83
2022/09/21 12:27:53;;;;;;;1.00;0.40;;;;;;;;;;5068495;28;20138;-83
2022/09/21 12:30:22;;;;;;;0.85;0.40;;;;;;;;;;5052565;28;20047;-83
2022/09/21 12:32:58;;;;;;;1.30;0.60;;;;;;;;;;5046153;28;21725;-83
2022/09/21 12:35:34;;;;;;;0.70;0.38;;;;;;;;;;5067185;28;20485;-84
2022/09/21 12:38:31;;;;;;;1.13;0.40;;;;;;;;;;5042614;28;20098;-83
2022/09/21 12:41:23;;;;;;;2.75;0.75;;;;;;;;;;5051033;28;20045;-84
2022/09/21 12:44:24;;;;;;;1.65;0.60;;;;;;;;;;5069817;28;20052;-83
2022/09/21 12:47:08;;;;;;;3.45;0.40;;;;;;;;;;5050229;28;20050;-84
2022/09/21 12:49:45;;;;;;;1.33;0.40;;;;;;;;;;5045473;28;20068;-84
2022/09/21 12:52:20;;;;;;;1.73;0.40;;;;;;;;;;5053139;28;20044;-84
2022/09/21 12:54:56;;;;;;;1.33;0.40;;;;;;;;;;5044987;28;20056;-84
2022/09/21 12:58:07;;;;;;;1.45;0.40;;;;;;;;;;5065547;28;20044;-84
2022/09/21 13:01:47;;;;;;;0.45;0.25;;;;;;;;;;5067227;28;20159;-84
2022/09/21 13:04:37;;;;;;;1.65;0.38;;;;;;;;;;5053209;28;20511;-84
2022/09/21 13:08:00;;;;;;;0.32;0.22;;;;;;;;;;5053961;28;20045;-84
2022/09/21 13:11:30;;;;;;;1.48;0.50;;;;;;;;;;5060287;28;20043;-85
2022/09/21 13:17:33;;;;;;;1.77;0.70;;;;;;;;;;5038153;28;20057;-84
2022/09/21 13:20:04;;;;;;;1.98;0.60;;;;;;;;;;5029611;28;20033;-85
2022/09/21 13:22:33;;;;;;;1.35;0.60;;;;;;;;;;5039263;28;20160;-85
2022/09/21 13:25:26;;;;;;;0.82;0.50;;;;;;;;;;5041047;28;20520;-84
2022/09/21 13:29:05;;;;;;;4.05;0.80;;;;;;;;;;5037388;28;20048;-84
2022/09/21 13:32:13;;;;;;;2.65;0.57;;;;;;;;;;5039588;28;20049;-83
2022/09/21 13:34:42;;;;;;;2.95;0.60;;;;;;;;;;5031994;28;20042;-84
2022/09/21 13:37:15;;;;;;;3.13;0.65;;;;;;;;;;5040688;28;20044;-83
2022/09/21 13:40:01;;;;;;;0.63;0.38;;;;;;;;;;5068677;28;20144;-83
2022/09/21 13:42:29;;;;;;;3.05;0.40;;;;;;;;;;5048925;28;20056;-86
2022/09/21 13:45:13;;;;;;;1.38;0.50;;;;;;;;;;5048761;28;20179;-84
2022/09/21 13:47:58;;;;;;;1.30;0.47;;;;;;;;;;5065609;28;20141;-84
2022/09/21 13:50:43;;;;;;;1.20;0.55;;;;;;;;;;5066124;28;20048;-84
2022/09/21 13:53:21;;;;;;;0.90;0.50;;;;;;;;;;5048318;28;20100;-84
2022/09/21 13:56:19;;;;;;;0.95;0.50;;;;;;;;;;5067447;28;20033;-84
2022/09/21 13:58:56;;;;;;;1.58;0.73;;;;;;;;;;5063670;28;20047;-83
2022/09/21 14:01:34;;;;;;;1.17;0.57;;;;;;;;;;5065536;28;20044;-84
2022/09/21 14:04:26;;;;;;;2.63;0.82;;;;;;;;;;5064068;28;20063;-84
2022/09/21 14:06:56;;;;;;;1.40;0.50;;;;;;;;;;5046871;28;20609;-85
2022/09/21 14:09:59;;;;;;;2.22;0.90;;;;;;;;;;5062279;28;20041;-85
2022/09/21 14:12:53;;;;;;;2.90;0.88;;;;;;;;;;5068241;28;20037;-85
2022/09/21 14:15:21;;;;;;;1.85;0.70;;;;;;;;;;5063810;28;20094;-84
2022/09/21 14:18:18;;;;;;;2.88;0.88;;;;;;;;;;5029535;28;20044;-85
2022/09/21 14:21:22;;;;;;;4.28;1.00;;;;;;;;;;5065196;28;20062;-85
2022/09/21 14:24:20;;;;;;;1.33;0.90;;;;;;;;;;4985287;28;20089;-85
2022/09/21 14:26:54;;;;;;;2.72;0.52;;;;;;;;;;4964342;28;20070;-85
2022/09/21 14:29:33;;;;;;;1.27;0.65;;;;;;;;;;4984284;28;20038;-83
2022/09/21 14:32:04;;;;;;;1.30;0.70;;;;;;;;;;4984987;28;20062;-85
2022/09/21 14:34:38;;;;;;;1.85;0.60;;;;;;;;;;4983238;28;20050;-84
2022/09/21 14:37:37;;;;;;;2.75;1.00;;;;;;;;;;4984150;28;20466;-85
2022/09/21 14:40:26;;;;;;;2.15;0.77;;;;;;;;;;4968772;28;20134;-85
2022/09/21 14:43:14;;;;;;;2.78;1.05;;;;;;;;;;4968298;28;20497;-85
2022/09/21 14:46:12;;;;;;;3.35;1.20;;;;;;;;;;4983706;28;20129;-86
2022/09/21 14:49:09;;;;;;;2.13;0.68;;;;;;;;;;4983859;28;20045;-85
2022/09/21 14:52:28;;;;;;;1.33;0.60;;;;;;;;;;4983696;28;20550;-85
2022/09/21 14:55:25;;;;;;;2.17;0.80;;;;;;;;;;4983594;28;20074;-85
2022/09/21 14:58:17;;;;;;;2.08;0.80;;;;;;;;;;5024437;28;20055;-85
2022/09/21 15:00:50;;;;;;;1.63;0.75;;;;;;;;;;5062662;28;20094;-85
2022/09/21 15:03:29;;;;;;;1.92;0.80;;;;;;;;;;5063885;28;20044;-85
2022/09/21 15:12:30;;;;;;;2.20;0.93;;;;;;;;;;5066851;28;20508;-85
2022/09/21 15:15:58;;;;;;;2.45;0.73;;;;;;;;;;5068396;28;20044;-84
2022/09/21 15:19:19;;;;;;;2.40;0.90;;;;;;;;;;5066234;28;20419;-84
2022/09/21 15:22:16;;;;;;;2.05;0.85;;;;;;;;;;5062749;28;20056;-84
2022/09/21 15:24:58;;;;;;;1.58;0.70;;;;;;;;;;5048362;28;20405;-84
2022/09/21 15:27:32;;;;;;;1.95;0.90;;;;;;;;;;5064308;28;20127;-85
2022/09/21 15:30:04;;;;;;;1.95;1.05;;;;;;;;;;5066739;28;20594;-85
2022/09/21 15:32:40;;;;;;;1.10;0.63;;;;;;;;;;5047744;28;20051;-85
2022/09/21 15:35:28;;;;;;;1.45;0.70;;;;;;;;;;5064933;28;20121;-85
2022/09/21 15:38:01;;;;;;;2.03;1.00;;;;;;;;;;5065339;28;20037;-85
2022/09/21 15:40:30;;;;;;;2.00;0.80;;;;;;;;;;5047552;28;20050;-85
2022/09/21 15:43:04;;;;;;;2.42;0.70;;;;;;;;;;5043383;28;20128;-85
2022/09/21 15:45:36;;;;;;;1.25;0.50;;;;;;;;;;5048490;28;20029;-85
2022/09/21 15:48:12;;;;;;;1.90;0.82;;;;;;;;;;5063431;28;20119;-85
2022/09/21 15:50:44;;;;;;;0.82;0.40;;;;;;;;;;5065516;28;20067;-85
2022/09/21 15:53:24;;;;;;;1.83;0.80;;;;;;;;;;5063813;28;20624;-85
2022/09/21 15:55:53;;;;;;;2.13;0.60;;;;;;;;;;5064345;28;20049;-85
2022/09/21 15:58:39;;;;;;;1.58;0.77;;;;;;;;;;5066667;28;20040;-85
2022/09/21 16:01:22;;;;;;;1.95;0.77;;;;;;;;;;5064147;28;20110;-85
2022/09/21 16:04:03;;;;;;;2.65;1.00;;;;;;;;;;5047499;28;20049;-86
2022/09/21 16:07:33;;;;;;;3.00;1.00;;;;;;;;;;5060375;28;20045;-87
2022/09/21 16:10:45;;;;;;;2.45;1.00;;;;;;;;;;5062579;28;20098;-85
2022/09/21 16:16:23;;;;;;;2.45;1.00;;;;;;;;;;5067022;28;20048;-85
2022/09/21 16:18:54;;;;;;;4.15;1.27;;;;;;;;;;5048898;28;20063;-85
2022/09/21 16:21:32;;;;;;;2.35;1.20;;;;;;;;;;5064335;28;20090;-85
2022/09/21 16:24:18;;;;;;;2.50;1.30;;;;;;;;;;5063158;28;20525;-85
2022/09/21 16:27:00;;;;;;;1.80;0.98;;;;;;;;;;5065778;28;20041;-85
2022/09/21 16:29:38;;;;;;;2.47;1.20;;;;;;;;;;5065583;28;20153;-85
2022/09/21 16:32:26;;;;;;;2.05;1.05;;;;;;;;;;5042621;28;20300;-85
2022/09/21 16:35:26;;;;;;;2.22;0.93;;;;;;;;;;5063744;28;20072;-85
2022/09/21 16:38:06;;;;;;;2.75;1.08;;;;;;;;;;5052878;28;20103;-85
2022/09/21 16:40:38;;;;;;;2.40;1.08;;;;;;;;;;5052587;28;20032;-84
2022/09/21 16:43:09;;;;;;;2.78;0.93;;;;;;;;;;5066935;28;20032;-85
2022/09/21 16:45:37;;;;;;;1.77;0.95;;;;;;;;;;5049758;28;20075;-85
2022/09/21 16:48:06;;;;;;;2.25;1.02;;;;;;;;;;5068214;28;20045;-86
2022/09/21 16:50:35;;;;;;;4.45;1.15;;;;;;;;;;5066932;28;20029;-85